Laukaa, Finland
Kieli:  Suomi
CurCond
Päivitetty27/01/2023 04:04 
 

Lähistön Lentoasemien Säätiloja:

 

EFJY - Jyvaskyla (mil/C,) Finland
Etäisyys Sääasemalta: PKo 21km
Päivitetty: 27/01/2023 03:50
Selkeätä
Selkeätä
 Tuulen suunta Lu
Tuuli: Lu 11 km/h
Lämpötila: -8°C
Tuulen purevuus: -13°C
Kastepiste: -9°C
Ilmankosteus: 93%
Ilmanpaine: 1021 hPa
Yhteenveto: Selkeätä
Näkyvyys: Enemmän Kuin 10 km
2023/01/27 01:50 EFJY 270150Z AUTO 31006KT CAVOK M08/M09 Q1021
EFHA - Halli (fin-Afb), Finland
Etäisyys Sääasemalta: Lo 56km
Päivitetty: 27/01/2023 03:50
Selkeätä
Selkeätä
 Tuulen suunta Lu
Tuuli: Lu 11 km/h
Lämpötila: -7°C
Tuulen purevuus: -12°C
Kastepiste: -7°C
Ilmankosteus: 100%
Ilmanpaine: 1022 hPa
Yhteenveto: Selkeätä
Näkyvyys: Enemmän Kuin 10 km
2023/01/27 01:50 EFHA 270150Z AUTO 31006KT CAVOK M07/M07 Q1022
EFMI - Mikkeli, Finland
Etäisyys Sääasemalta: IKa 105km
Päivitetty: 27/01/2023 03:50
Pilvistä
Pilvistä
 Tuulen suunta LLu
Tuuli: LLu 9 km/h
Lämpötila: -3°C
Tuulen purevuus: -7°C
Kastepiste: -5°C
Ilmankosteus: 86%
Ilmanpaine: 1020 hPa
Pilvisyys: Pilvistä
Näkyvyys: 10 km
Pilvisyystiedot: Pilvistä 244 m
2023/01/27 01:50 EFMI 270150Z AUTO 30005KT 270V330 9999 OVC008 M03/M05 Q1020
 
EFTP - Tampere/Pirkkala, Finland
Etäisyys Sääasemalta: Lo 135km
Päivitetty: 27/01/2023 03:50
Selkeätä
Selkeätä
 Tuulen suunta Lu
Tuuli: Lu 6 km/h
Lämpötila: -6°C
Kastepiste: -7°C
Ilmankosteus: 93%
Ilmanpaine: 1023 hPa
Yhteenveto: Selkeätä
Näkyvyys: Enemmän Kuin 10 km
2023/01/27 01:50 EFTP 270150Z AUTO 31003KT CAVOK M06/M07 Q1023
EFKU - Kuopio (mil/Civ), Finland
Etäisyys Sääasemalta: Ko 146km
Päivitetty: 27/01/2023 03:50
Joitain Pilviä
Joitain Pilviä
 Tuulen suunta LLu
Tuuli: LLu 11 km/h
Lämpötila: -6°C
Tuulen purevuus: -11°C
Kastepiste: -8°C
Ilmankosteus: 86%
Ilmanpaine: 1020 hPa
Pilvisyys: Joitain Pilviä
Näkyvyys: 10 km
Pilvisyystiedot: Joitain Pilviä 213 m
2023/01/27 01:50 EFKU 270150Z AUTO 29006KT 9999 FEW007 M06/M08 Q1020
EFSI - Seinajoki-Ilmajo, Finland
Etäisyys Sääasemalta: LLu 149km
Päivitetty: 27/01/2023 03:50
Selkeätä
Selkeätä
 Tuulen suunta LLo
Tuuli: LLo 4 km/h
Lämpötila: -8°C
Kastepiste: -9°C
Ilmankosteus: 93%
Ilmanpaine: 1023 hPa
Yhteenveto: Selkeätä
Näkyvyys: Enemmän Kuin 10 km
2023/01/27 01:50 EFSI 270150Z AUTO 24002KT CAVOK M08/M09 Q1023